Tiempo atmosférico en la estación meteorológica de Mérida, Badajoz (220 m.)



Fecha
DESCASC
Temp. máxima en grados centígrados (hora)
DESCASC
Temp. mínima en grados centígrados (hora)
DESCASC
Temp. media en grados centígrados
DESCASC
Racha de viento máxima en m/sg (hora)
DESCASC
Velocidad máxima media en intervalos de 10 minutos(hora)
DESCASC
Precipitaciones diarias en mm
DESCASC
Precipitaciones de 00:00 a 06:00 en mm
DESCASC
Precipitaciones de 06:00 a 12:00 en mm
DESCASC
Precipitaciones de 12:00 a 18:00 en mm
DESCASC
Precipitaciones de 18:00 a 24:00 en mm
DESCASC
20-10-2019 20.3 (15:30) 9.8 (07:30) 15 7.78 (10:40) 4.72 (18:30) 0 0 0 0 0
19-10-2019 23.4 (17:10) 9.7 (05:40) 16.5 10.83 (18:30) 6.11 (18:30) 3.6 0 0.4 0.5 2.7
18-10-2019 23.5 (16:10) 12.8 (23:10) 18.2 8.61 (15:50) 4.44 (11:30) 0.1 0 0.1 0 0
17-10-2019 22.5 (15:10) 9.3 (00:00) 15.9 5.83 (20:10) 3.06 (09:20) 0.1 0 0 0 0.1
16-10-2019 22.7 (16:00) 6.5 (00:00) 14.6 5.56 (15:00) 2.5 (14:30) 0 0 0 0 0
15-10-2019 20.9 (16:00) 5 (00:00) 12.9 5.28 (17:00) 2.5 (18:10) 0 0 0 0 0
14-10-2019 22.8 (14:10) 10.3 (00:00) 16.5 13.33 (15:10) 7.22 (15:20) 7.2 0 1.8 5.4 0
13-10-2019 28.3 (16:30) 10.2 (00:00) 19.2 5.28 (13:30) 3.06 (02:40) 0 0 0 0 0
12-10-2019 34.3 (16:20) 16.3 (00:00) 25.3 10 (17:20) 5.83 (17:50) 0 0 0 0 0
11-10-2019 32.1 (15:40) 14.6 (00:00) 23.3 5.28 (11:20) 3.61 (11:20) 0 0 0 0 0
10-10-2019 33.3 (15:50) 8.9 (00:00) 21.1 4.72 (18:00) 2.78 (18:20) 0 0 0 0 0
09-10-2019 32.6 (16:40) 14.5 (00:00) 23.5 6.11 (16:00) 3.33 (17:40) 0 0 0 0 0
08-10-2019 36 (17:10) 12.8 (00:00) 24.4 4.72 (23:59) 2.5 (23:59) 0 0 0 0 0
07-10-2019 34.3 (17:30) 11.2 (00:00) 22.7 3.61 (14:10) 1.67 (02:40) 0 0 0 0 0
06-10-2019 31.9 (16:50) 8.7 (00:00) 20.3 4.44 (02:50) 2.5 (02:40) 0 0 0 0 0
05-10-2019 27.5 (17:20) 9.5 (00:00) 18.5 5.56 (15:50) 3.06 (01:20) 0 0 0 0 0
04-10-2019 28.8 (17:00) 11.9 (00:00) 20.3 5.28 (17:50) 2.78 (01:30) 0 0 0 0 0
03-10-2019 30.1 (17:10) 11.3 (00:00) 20.7 8.06 (17:50) 3.89 (16:50) 0 0 0 0 0
02-10-2019 29.1 (16:50) 10.9 (00:00) 20 6.94 (16:20) 3.89 (17:30) 0 0 0 0 0
01-10-2019 29.5 (16:00) 15 (00:00) 22.3 9.17 (15:20) 4.44 (15:00) 0 0 0 0 0
30-09-2019 34.7 (16:40) 10 (00:00) 22.4 6.67 (18:00) 3.61 (17:40) 0 0 0 0 0
29-09-2019 33.9 (16:20) 10.3 (00:00) 22.1 5.56 (17:10) 2.78 (18:20) 0 0 0 0 0
28-09-2019 34.5 (16:30) 10.3 (00:00) 22.4 3.89 (00:10) 1.94 (00:20) 0 0 0 0 0
27-09-2019 33.2 (16:00) 11.9 (00:00) 22.6 5.56 (17:50) 3.06 (17:50) 0 0 0 0 0
26-09-2019 31.6 (16:00) 11.9 (00:00) 21.8 5 (16:50) 2.22 (00:20) 0 0 0 0 0
25-09-2019 29.4 (17:10) 12.1 (00:00) 20.8 6.67 (17:30) 3.06 (09:50) 0 0 0 0 0
24-09-2019 29.6 (17:30) 9.9 (00:00) 19.8 8.89 (17:10) 5 (19:10) 0 0 0 0 0
23-09-2019 27.9 (17:30) 9 (00:00) 18.4 5 (17:40) 1.94 (19:20) 0 0 0 0 0
22-09-2019 26.2 (17:30) 12.6 (00:00) 19.4 8.61 (17:00) 4.44 (17:10) 1.1 1 0.1 0 0

Gráficas

Temp. máximas Temp. mínimas Temp. medias Precipitaciones Rachas de viento máximas Velocidades máximas media en intervalos de 10 minutos

Datos horarios

Fecha y hora oficial Temperatura (ºC) Velocidad del viento (km/h) Dirección del viento Racha (km/h) Dirección de racha Precipitación (mm) Presión (hPa) Tendencia (hPa) Humedad (%)
2019-10-21 23:00:00 9.7 0 Calma 6 Oeste 0 -- -- 75
2019-10-21 22:00:00 12 3 Oeste 6 Oeste 0 -- -- 67
2019-10-21 21:00:00 11.5 2 Noroeste 5 Oeste 0 -- -- 63
2019-10-21 20:00:00 13.6 2 Oeste 9 Oeste 0 -- -- 53
2019-10-21 19:00:00 17.5 3 Oeste 10 Oeste 0 -- -- 38
2019-10-21 18:00:00 18.4 3 Oeste 12 Sudoeste 0 -- -- 37
2019-10-21 17:00:00 20.3 0 Calma 11 Sudoeste 0 -- -- 35
2019-10-21 16:00:00 20.7 4 Sudoeste 12 Oeste 0 -- -- 36
2019-10-21 15:00:00 19.5 3 Nordeste 10 Nordeste 0 -- -- 42
2019-10-21 14:00:00 18.2 0 Calma 9 Este 0 -- -- 45
2019-10-21 13:00:00 15.9 3 Este 10 Sudeste 0 -- -- 53
2019-10-21 12:00:00 14.1 4 Sudeste 10 Este 0 -- -- 65
2019-10-21 11:00:00 11.7 4 Este 8 Este 0 -- -- 73
2019-10-21 10:00:00 9 2 Nordeste 6 Este 0 -- -- 86
2019-10-21 09:00:00 6.2 2 Este 6 Este 0 -- -- 96
2019-10-21 08:00:00 5.1 0 Calma 3 Sudeste 0 -- -- 96
2019-10-21 07:00:00 5.4 0 Calma 3 Sur 0 -- -- 96
2019-10-21 06:00:00 5.8 0 Calma 6 Oeste 0 -- -- 96
2019-10-21 05:00:00 6.5 3 Oeste 8 Sudoeste 0 -- -- 95
2019-10-21 04:00:00 6.3 3 Oeste 5 Oeste 0 -- -- 95
2019-10-21 03:00:00 7.3 0 Calma 8 Oeste 0 -- -- 93
2019-10-21 02:00:00 8.6 5 Oeste 10 Sudoeste 0 -- -- 88
2019-10-21 01:00:00 10 7 Sudoeste 13 Sudoeste 0 -- -- 81
2019-10-21 00:00:00 10.9 6 Sudoeste 13 Oeste 0 -- -- 76
2019-10-20 23:00:00 11.8 5 Sudoeste 19 Sudoeste 0 -- -- 72
2019-10-20 22:00:00 13.2 7 Sudoeste 17 Sudoeste 0 -- -- 66
2019-10-20 21:00:00 12.9 5 Sudoeste 10 Sudoeste 0 -- -- 66
2019-10-20 20:00:00 13.1 4 Sudoeste 21 Oeste 0 -- -- 60
2019-10-20 19:00:00 15.5 10 Oeste 27 Oeste 0 -- -- 48
2019-10-20 18:00:00 17.9 15 Oeste 24 Oeste 0 -- -- 42
2019-10-20 17:00:00 19.9 8 Oeste 26 Sudoeste 0 -- -- 42
2019-10-20 16:00:00 19.4 14 Oeste 26 Oeste 0 -- -- 42
2019-10-20 15:00:00 18.6 12 Oeste 25 Oeste 0 -- -- 45
2019-10-20 14:00:00 18.6 13 Oeste 23 Sudoeste 0 -- -- 51
2019-10-20 13:00:00 16.5 12 Sudoeste 26 Sudoeste 0 -- -- 60
2019-10-20 12:00:00 15 15 Oeste 26 Oeste 0 -- -- 68
2019-10-20 11:00:00 12.7 17 Oeste 28 Oeste 0 -- -- 76
2019-10-20 10:00:00 12.1 13 Oeste 22 Oeste 0 -- -- 82
2019-10-20 09:00:00 10.3 9 Sudoeste 21 Sudoeste 0 -- -- 90
2019-10-20 08:00:00 10.3 11 Sudoeste 21 Sudoeste 0 -- -- 90
2019-10-20 07:00:00 10.2 10 Sudoeste 26 Sudoeste 0 -- -- 90
2019-10-20 06:00:00 10.4 11 Sudoeste 23 Sudoeste 0 -- -- 89
2019-10-20 05:00:00 10.5 10 Sudoeste 27 Oeste 0 -- -- 86
2019-10-20 04:00:00 12.5 17 Oeste 27 Sudoeste 0 -- -- 83
2019-10-20 03:00:00 11.8 8 Sudoeste 18 Oeste 0 -- -- 90
2019-10-20 02:00:00 11.9 8 Sudoeste 19 Sudoeste 0 -- -- 90
2019-10-20 01:00:00 12.5 9 Sudoeste 24 Sudoeste 0 -- -- 90
2019-10-20 00:00:00 13.1 11 Sudoeste 27 Oeste 0 -- -- 88
2019-10-19 23:00:00 13.9 14 Sudoeste 26 Sudoeste 0 -- -- 87
2019-10-19 22:00:00 14.3 13 Sudoeste 36 Oeste 0 -- -- 87
2019-10-19 21:00:00 16.6 20 Sudoeste 36 Sudoeste 1.6 -- -- 92
2019-10-19 20:00:00 17 14 Sudoeste 34 Sur 1.1 -- -- 91
2019-10-19 19:00:00 19.6 16 Sur 39 Sur 0 -- -- 64
2019-10-19 18:00:00 22.1 18 Sudoeste 36 Sudoeste 0 -- -- 47
2019-10-19 17:00:00 21.6 13 Sur 30 Sur 0 -- -- 50
2019-10-19 16:00:00 21.8 14 Sur 27 Sudoeste 0 -- -- 51
2019-10-19 15:00:00 21.4 17 Sur 32 Sudoeste 0 -- -- 59
2019-10-19 14:00:00 18.2 10 Sur 23 Sur 0 -- -- 76
2019-10-19 13:00:00 14.9 6 Sudeste 17 Este 0.5 -- -- 93
2019-10-19 12:00:00 14.4 8 Sudeste 21 Sudeste 0.4 -- -- 93
2019-10-19 11:00:00 15.2 13 Sur 23 Sudeste 0 -- -- 75
2019-10-19 10:00:00 14.9 3 Sudeste 14 Este 0 -- -- 73
2019-10-19 09:00:00 13.8 8 Este 13 Este 0 -- -- 77
2019-10-19 08:00:00 13.3 5 Este 7 Este 0 -- -- 84
2019-10-19 07:00:00 12.7 4 Este 5 Este 0 -- -- 85
2019-10-19 06:00:00 10.3 0 Calma 4 Sudoeste 0 -- -- 92
2019-10-19 05:00:00 12.3 4 Sudoeste 11 Sudoeste 0 -- -- 88
2019-10-19 04:00:00 12.7 3 Oeste 13 Oeste 0 -- -- 84
2019-10-19 03:00:00 13.7 6 Sudoeste 12 Sudoeste 0 -- -- 76
2019-10-19 02:00:00 14.5 5 Sudoeste 11 Sudoeste 0 -- -- 74
2019-10-19 01:00:00 12.9 4 Sur 8 Sur 0 -- -- 81
2019-10-19 00:00:00 13.2 5 Sur 9 Sudoeste 0 -- -- 76
2019-10-18 23:00:00 13.1 5 Sur 7 Sudoeste 0 -- -- 76
2019-10-18 22:00:00 14.9 4 Sudoeste 11 Oeste 0 -- -- 65
2019-10-18 21:00:00 16.3 4 Oeste 11 Oeste 0 -- -- 60
2019-10-18 20:00:00 18 4 Oeste 15 Oeste 0 -- -- 54
2019-10-18 19:00:00 20.6 6 Oeste 21 Oeste 0 -- -- 47
2019-10-18 18:00:00 21.5 9 Oeste 26 Sudoeste 0 -- -- 43
2019-10-18 17:00:00 22.9 13 Oeste 25 Sudoeste 0 -- -- 42
2019-10-18 16:00:00 22.9 14 Sudoeste 31 Sudoeste 0 -- -- 43
2019-10-18 15:00:00 22.3 9 Sudoeste 29 Oeste 0 -- -- 49
2019-10-18 14:00:00 21.4 12 Sudoeste 24 Oeste 0 -- -- 54
2019-10-18 13:00:00 19.7 15 Oeste 27 Oeste 0 -- -- 66
2019-10-18 12:00:00 18.8 10 Oeste 27 Oeste 0 -- -- 76
2019-10-18 11:00:00 21.1 5 Sudoeste 24 Sudoeste 0 -- -- 78
2019-10-18 10:00:00 19 9 Sudoeste 18 Sudoeste 0 -- -- 85
2019-10-18 09:00:00 17.7 4 Sudoeste 17 Sudoeste 0.1 -- -- 92
2019-10-18 08:00:00 18.7 7 Sur 19 Sur 0 -- -- 78
2019-10-18 07:00:00 18.8 9 Sur 23 Sur 0 -- -- 80
2019-10-18 06:00:00 17.2 6 Sur 13 Sudoeste 0 -- -- 89
2019-10-18 05:00:00 15.7 5 Oeste 12 Sudoeste 0 -- -- 92
2019-10-18 04:00:00 17.7 5 Sudoeste 15 Sudoeste 0 -- -- 84
2019-10-18 03:00:00 17.8 6 Sudoeste 15 Sudoeste 0 -- -- 88
2019-10-18 02:00:00 17.4 6 Sudoeste 15 Sudoeste 0 -- -- 89
2019-10-18 01:00:00 18.2 5 Sudoeste 11 Sudoeste 0 -- -- 88
2019-10-18 00:00:00 17.5 4 Sudoeste 13 Sudoeste 0 -- -- 89
2019-10-17 23:00:00 18.1 5 Sudoeste 15 Sudoeste 0 -- -- 86
2019-10-17 22:00:00 18.7 6 Sudoeste 15 Sudoeste 0 -- -- 88
2019-10-17 21:00:00 18.3 5 Sudoeste 21 Sudoeste 0.1 -- -- 89
2019-10-17 20:00:00 19.2 2 Sudoeste 12 Oeste 0 -- -- 85
2019-10-17 19:00:00 19.3 0 Calma 5 Sudoeste 0 -- -- 85
2019-10-17 18:00:00 19.2 0 Calma 17 Oeste 0 -- -- 86
2019-10-17 17:00:00 19.9 6 Oeste 19 Oeste 0 -- -- 76
2019-10-17 16:00:00 21.3 6 Oeste 19 Sudoeste 0 -- -- 60
2019-10-17 15:00:00 21.3 7 Sudoeste 20 Sudoeste 0 -- -- 58
2019-10-17 14:00:00 20.6 7 Sudoeste 20 Sudoeste 0 -- -- 59
2019-10-17 13:00:00 19 8 Sur 17 Sur 0 -- -- 65
2019-10-17 12:00:00 16.6 8 Este 15 Sudeste 0 -- -- 72
2019-10-17 11:00:00 14.3 8 Este 14 Este 0 -- -- 76
2019-10-17 10:00:00 13.9 8 Este 16 Sudeste 0 -- -- 75
2019-10-17 09:00:00 13.1 7 Este 12 Este 0 -- -- 76
2019-10-17 08:00:00 12.5 6 Este 11 Este 0 -- -- 83
2019-10-17 07:00:00 11.8 10 Este 12 Este 0 -- -- 84
2019-10-17 06:00:00 10.7 4 Este 6 Este 0 -- -- 89
2019-10-17 05:00:00 10 2 Nordeste 5 Sudoeste 0 -- -- 91
2019-10-17 04:00:00 9.8 0 Calma 4 Este 0 -- -- 90
2019-10-17 03:00:00 9.8 0 Calma 4 Este 0 -- -- 90
2019-10-17 02:00:00 11 0 Calma 4 Este 0 -- -- 88
2019-10-17 01:00:00 10.8 0 Calma 9 Oeste 0 -- -- 83
2019-10-17 00:00:00 13.1 3 Este 8 Este 0 -- -- 75
2019-10-16 23:00:00 12.5 0 Calma 8 Sudoeste 0 -- -- 73
2019-10-16 22:00:00 13 5 Sur 6 Sur 0 -- -- 74
2019-10-16 21:00:00 13.1 0 Calma 3 Oeste 0 -- -- 72
2019-10-16 20:00:00 15.8 0 Calma 9 Oeste 0 -- -- 51
2019-10-16 19:00:00 20.1 4 Oeste 17 Noroeste 0 -- -- 40
2019-10-16 18:00:00 21 8 Oeste 18 Oeste 0 -- -- 38
2019-10-16 17:00:00 21.5 4 Noroeste 17 Oeste 0 -- -- 37
2019-10-16 16:00:00 21.5 4 Sudoeste 18 Oeste 0 -- -- 38
2019-10-16 15:00:00 20.9 8 Oeste 20 Sudoeste 0 -- -- 40
2019-10-16 14:00:00 20.5 5 Sudoeste 17 Sudoeste 0 -- -- 42
2019-10-16 13:00:00 18.9 4 Sur 10 Sur 0 -- -- 49
2019-10-16 12:00:00 17.9 0 Calma 8 Este 0 -- -- 54
2019-10-16 11:00:00 15.2 3 Este 6 Este 0 -- -- 61
2019-10-16 10:00:00 12.7 3 Este 8 Este 0 -- -- 73
2019-10-16 09:00:00 8.8 5 Este 7 Este 0 -- -- 92
2019-10-16 08:00:00 7 0 Calma 5 Este 0 -- -- 95
2019-10-16 07:00:00 7.7 0 Calma 3 Noroeste 0 -- -- 95
2019-10-16 06:00:00 8.8 3 Noroeste 4 Noroeste 0 -- -- 95
2019-10-16 05:00:00 8.1 0 Calma 3 Sudeste 0 -- -- 93
2019-10-16 04:00:00 8.8 0 Calma 4 Este 0 -- -- 91
2019-10-16 03:00:00 8.6 0 Calma 14 Oeste 0 -- -- 91
2019-10-16 02:00:00 10 2 Este 8 Este 0 -- -- 84
2019-10-16 01:00:00 11.1 4 Sudeste 9 Este 0 -- -- 76
2019-10-16 00:00:00 12.2 6 Este 8 Este 0 -- -- 80
2019-10-15 23:00:00 10.6 0 Calma 4 Este 0 -- -- 83
2019-10-15 22:00:00 11.6 0 Calma 5 Sur 0 -- -- 76
2019-10-15 21:00:00 12.9 3 Sur 5 Sur 0 -- -- 72
2019-10-15 20:00:00 14.9 3 Sudoeste 13 Sudoeste 0 -- -- 55
2019-10-15 19:00:00 18.1 8 Sudoeste 18 Oeste 0 -- -- 45
2019-10-15 18:00:00 18.9 8 Oeste 17 Oeste 0 -- -- 42
2019-10-15 17:00:00 20.5 6 Oeste 19 Sudoeste 0 -- -- 38
2019-10-15 16:00:00 20.3 5 Oeste 15 Noroeste 0 -- -- 40
2019-10-15 15:00:00 20 5 Noroeste 14 Oeste 0 -- -- 41
2019-10-15 14:00:00 19 5 Noroeste 13 Noroeste 0 -- -- 42
2019-10-15 13:00:00 18 5 Oeste 13 Sudoeste 0 -- -- 52
2019-10-15 12:00:00 15.5 0 Calma 9 Oeste 0 -- -- 63
2019-10-15 11:00:00 14 4 Oeste 9 Oeste 0 -- -- 67
2019-10-15 10:00:00 12 0 Calma 5 Oeste 0 -- -- 81
2019-10-15 09:00:00 5.7 0 Calma 4 Oeste 0 -- -- 96
2019-10-15 08:00:00 6.9 0 Calma 9 Oeste 0 -- -- 96
2019-10-15 07:00:00 8.1 3 Oeste 7 Oeste 0 -- -- 96
2019-10-15 06:00:00 7.2 3 Oeste 8 Oeste 0 -- -- 96
2019-10-15 05:00:00 7.9 2 Sudoeste 5 Oeste 0 -- -- 95
2019-10-15 04:00:00 8.1 0 Calma 8 Sudoeste 0 -- -- 93
2019-10-15 03:00:00 8.4 2 Sur 8 Sudoeste 0 -- -- 92
2019-10-15 02:00:00 9.1 3 Sur 13 Sudoeste 0 -- -- 89
2019-10-15 01:00:00 9.5 2 Sudoeste 12 Oeste 0 -- -- 89
2019-10-15 00:00:00 10.8 5 Sudoeste 11 Sudoeste 0 -- -- 85
2019-10-14 23:00:00 10.8 3 Oeste 10 Oeste 0 -- -- 88
2019-10-14 22:00:00 12.8 4 Sudoeste 15 Oeste 0 -- -- 88
2019-10-14 21:00:00 13.7 6 Sudoeste 15 Sudoeste 0 -- -- 82
2019-10-14 20:00:00 14.1 7 Sudoeste 22 Sudoeste 0 -- -- 77
2019-10-14 19:00:00 15.6 5 Sudoeste 16 Sudoeste 0 -- -- 80
2019-10-14 18:00:00 15.2 9 Sudoeste 20 Sudoeste 0 -- -- 85
2019-10-14 17:00:00 14.6 10 Oeste 23 Oeste 0.9 -- -- 92
2019-10-14 16:00:00 15.4 6 Oeste 48 Oeste 4.5 -- -- 93
2019-10-14 15:00:00 20.6 18 Sudoeste 33 Sudoeste 0 -- -- 49
2019-10-14 14:00:00 22.3 14 Sudoeste 35 Sudoeste 0 -- -- 48
2019-10-14 13:00:00 20.1 16 Sudoeste 31 Sudoeste 0 -- -- 54
2019-10-14 12:00:00 20.1 10 Sudoeste 22 Sudoeste 0 -- -- 59
2019-10-14 11:00:00 18.5 11 Sudoeste 23 Sudoeste 0 -- -- 70
2019-10-14 10:00:00 15.3 12 Sudoeste 22 Sudoeste 0 -- -- 88
2019-10-14 09:00:00 15 10 Sudoeste 26 Sudoeste 0 -- -- 92
2019-10-14 08:00:00 15.6 13 Sudoeste 22 Sudoeste 0.3 -- -- 93
2019-10-14 07:00:00 16.4 13 Sur 23 Sur 1.5 -- -- 92
2019-10-14 06:00:00 17.5 10 Sur 20 Sur 0 -- -- 76
2019-10-14 05:00:00 16.4 6 Sudoeste 14 Sudoeste 0 -- -- 81
2019-10-14 04:00:00 16.2 4 Oeste 10 Oeste 0 -- -- 76
2019-10-14 03:00:00 16.8 4 Oeste 10 Sudoeste 0 -- -- 66
2019-10-14 02:00:00 17.3 4 Sur 9 Sur 0 -- -- 61
2019-10-14 01:00:00 15.6 0 Calma 4 Este 0 -- -- 61
2019-10-14 00:00:00 16.6 0 Calma 5 Nordeste 0 -- -- 60
2019-10-13 23:00:00 18.2 0 Calma 6 Este 0 -- -- 57
2019-10-13 22:00:00 18.2 3 Sudeste 5 Sur 0 -- -- 56
2019-10-13 21:00:00 18.9 0 Calma 2 Oeste 0 -- -- 51
2019-10-13 20:00:00 21.6 2 Oeste 7 Oeste 0 -- -- 46
2019-10-13 19:00:00 26.3 4 Oeste 14 Oeste 0 -- -- 39
2019-10-13 18:00:00 26.8 6 Oeste 18 Oeste 0 -- -- 38
2019-10-13 17:00:00 27.9 7 Noroeste 14 Noroeste 0 -- -- 38
2019-10-13 16:00:00 28 4 Norte 14 Norte 0 -- -- 39
2019-10-13 15:00:00 26.4 3 Nordeste 18 Este 0 -- -- 42
2019-10-13 14:00:00 25.1 7 Sur 19 Este 0 -- -- 45
2019-10-13 13:00:00 24 0 Calma 16 Este 0 -- -- 49
2019-10-13 12:00:00 21.7 9 Este 18 Sudeste 0 -- -- 56
2019-10-13 11:00:00 19.5 11 Sudeste 15 Sudeste 0 -- -- 66
2019-10-13 10:00:00 17 7 Este 13 Este 0 -- -- 72
2019-10-13 09:00:00 13.7 6 Este 8 Este 0 -- -- 81
2019-10-13 08:00:00 14.1 0 Calma 5 Este 0 -- -- 85
2019-10-13 07:00:00 11.2 0 Calma 3 Sur 0 -- -- 91
2019-10-13 06:00:00 11.5 0 Calma 3 Sur 0 -- -- 90
2019-10-13 05:00:00 11.8 0 Calma 4 Noroeste 0 -- -- 86
2019-10-13 04:00:00 14.3 0 Calma 14 Oeste 0 -- -- 76
2019-10-13 03:00:00 17.5 9 Oeste 18 Sudoeste 0 -- -- 69
2019-10-13 02:00:00 17.9 8 Sudoeste 18 Sudoeste 0 -- -- 71
2019-10-13 01:00:00 18.6 8 Oeste 17 Sudoeste 0 -- -- 69
2019-10-13 00:00:00 19.6 6 Sudoeste 15 Sudoeste 0 -- -- 68
2019-10-12 23:00:00 21.4 11 Oeste 22 Sudoeste 0 -- -- 57
2019-10-12 22:00:00 23.2 6 Sudoeste 18 Sudoeste 0 -- -- 46
2019-10-12 21:00:00 25.6 11 Sudoeste 27 Sudoeste 0 -- -- 40
2019-10-12 20:00:00 27.6 14 Sudoeste 34 Sudoeste 0 -- -- 38
2019-10-12 19:00:00 30 15 Sudoeste 35 Sudoeste 0 -- -- 32
2019-10-12 18:00:00 32.5 17 Sur 36 Sur 0 -- -- 29
2019-10-12 17:00:00 32.9 17 Sur 32 Sur 0 -- -- 30
2019-10-12 16:00:00 31.7 4 Oeste 15 Sudoeste 0 -- -- 37
2019-10-12 15:00:00 29.1 9 Oeste 30 Oeste 0 -- -- 38
2019-10-12 14:00:00 28.3 6 Sudoeste 15 Oeste 0 -- -- 39
2019-10-12 13:00:00 26.7 4 Sudeste 14 Este 0 -- -- 43
2019-10-12 12:00:00 25.5 8 Este 15 Este 0 -- -- 49
2019-10-12 11:00:00 21.8 4 Nordeste 10 Sur 0 -- -- 61
2019-10-12 10:00:00 21.2 5 Sudeste 10 Sudeste 0 -- -- 66
2019-10-12 09:00:00 17.8 0 Calma 6 Oeste 0 -- -- 75
2019-10-12 08:00:00 17 0 Calma 9 Oeste 0 -- -- 76
2019-10-12 07:00:00 18.4 4 Sudoeste 7 Oeste 0 -- -- 71
2019-10-12 06:00:00 19 3 Oeste 9 Oeste 0 -- -- 67
2019-10-12 05:00:00 21 0 Calma 6 Sudeste 0 -- -- 63
2019-10-12 04:00:00 19.7 0 Calma 4 Sudeste 0 -- -- 62
2019-10-12 03:00:00 21.1 0 Calma 10 Este 0 -- -- 57
2019-10-12 02:00:00 20.7 0 Calma 8 Oeste 0 -- -- 57
2019-10-12 01:00:00 22.7 3 Nordeste 6 Este 0 -- -- 50
2019-10-12 00:00:00 21.3 2 Sur 8 Este 0 -- -- 52
2019-10-11 23:00:00 23.2 2 Sudoeste 12 Sudeste 0 -- -- 49
2019-10-11 22:00:00 22.9 0 Calma 4 Noroeste 0 -- -- 51
2019-10-11 21:00:00 24.2 4 Oeste 8 Sudoeste 0 -- -- 48
2019-10-11 20:00:00 27.1 5 Sudoeste 15 Sudoeste 0 -- -- 40
2019-10-11 19:00:00 28.3 4 Sudoeste 9 Sur 0 -- -- 38
2019-10-11 18:00:00 29.2 2 Oeste 12 Sur 0 -- -- 37
2019-10-11 17:00:00 29.2 5 Sur 15 Sur 0 -- -- 35
2019-10-11 16:00:00 29.7 4 Noroeste 12 Sudoeste 0 -- -- 37
2019-10-11 15:00:00 29.7 4 Oeste 13 Oeste 0 -- -- 37
2019-10-11 14:00:00 28.7 4 Sur 19 Este 0 -- -- 41
2019-10-11 13:00:00 27.6 7 Este 17 Este 0 -- -- 45
2019-10-11 12:00:00 25.1 9 Sudeste 19 Este 0 -- -- 51
2019-10-11 11:00:00 23.4 12 Este 19 Este 0 -- -- 56
2019-10-11 10:00:00 20.3 10 Este 15 Este 0 -- -- 59
2019-10-11 09:00:00 17.1 5 Este 10 Este 0 -- -- 62
2019-10-11 08:00:00 16.5 6 Este 9 Este 0 -- -- 63
2019-10-11 07:00:00 18.6 6 Sudeste 12 Sudeste 0 -- -- 61
2019-10-11 06:00:00 15.2 3 Este 8 Este 0 -- -- 65
2019-10-11 05:00:00 16.4 0 Calma 8 Este 0 -- -- 62
2019-10-11 04:00:00 18 6 Este 9 Este 0 -- -- 61
2019-10-11 03:00:00 16 2 Este 10 Oeste 0 -- -- 65
2019-10-11 02:00:00 17.1 4 Oeste 11 Oeste 0 -- -- 65
2019-10-11 01:00:00 18 0 Calma 6 Este 0 -- -- 59
2019-10-11 00:00:00 17.7 0 Calma 4 Este 0 -- -- 59
2019-10-10 23:00:00 18.9 0 Calma 4 Nordeste 0 -- -- 54
2019-10-10 22:00:00 21.4 3 Sudoeste 5 Sudoeste 0 -- -- 49
2019-10-10 21:00:00 22.5 3 Sur 7 Sudoeste 0 -- -- 45
2019-10-10 20:00:00 25.3 4 Sudoeste 13 Oeste 0 -- -- 38
2019-10-10 19:00:00 29.7 9 Oeste 17 Oeste 0 -- -- 31
2019-10-10 18:00:00 31.2 8 Oeste 17 Oeste 0 -- -- 28
2019-10-10 17:00:00 33.2 6 Oeste 15 Oeste 0 -- -- 27
2019-10-10 16:00:00 32.5 4 Oeste 11 Sudoeste 0 -- -- 26
2019-10-10 15:00:00 32.7 2 Noroeste 10 Este 0 -- -- 27
2019-10-10 14:00:00 29.3 4 Este 13 Nordeste 0 -- -- 28
2019-10-10 13:00:00 27.1 5 Este 14 Este 0 -- -- 32
2019-10-10 12:00:00 23.7 5 Este 13 Este 0 -- -- 39
2019-10-10 11:00:00 20.3 6 Sudeste 10 Sudeste 0 -- -- 45
2019-10-10 10:00:00 17.3 2 Nordeste 4 Este 0 -- -- 51
2019-10-10 09:00:00 10 0 Calma 0 Calma 0 -- -- 75
2019-10-10 08:00:00 9.1 0 Calma 5 Este 0 -- -- 74
2019-10-10 07:00:00 9.8 0 Calma 2 Este 0 -- -- 73
2019-10-10 06:00:00 9.9 0 Calma 4 Sur 0 -- -- 71
2019-10-10 05:00:00 11.1 0 Calma 5 Oeste 0 -- -- 68
2019-10-10 04:00:00 12.9 2 Oeste 6 Oeste 0 -- -- 62
2019-10-10 03:00:00 14.3 4 Oeste 13 Sudoeste 0 -- -- 51
2019-10-10 02:00:00 17.3 7 Sudoeste 16 Sudoeste 0 -- -- 43
2019-10-10 01:00:00 18 8 Sudoeste 17 Sudoeste 0 -- -- 42
2019-10-10 00:00:00 19.3 8 Sudoeste 15 Sudoeste 0 -- -- 40
2019-10-09 23:00:00 20.5 5 Sudoeste 13 Sudoeste 0 -- -- 35
2019-10-09 22:00:00 18.8 0 Calma 4 Oeste 0 -- -- 35
2019-10-09 21:00:00 21.6 3 Oeste 12 Sudoeste 0 -- -- 37
2019-10-09 20:00:00 26.1 5 Sudoeste 14 Sudoeste 0 -- -- 33
2019-10-09 19:00:00 29.2 8 Oeste 18 Oeste 0 -- -- 30
2019-10-09 18:00:00 30.8 8 Oeste 20 Oeste 0 -- -- 30
2019-10-09 17:00:00 31.7 5 Noroeste 21 Oeste 0 -- -- 32
2019-10-09 16:00:00 31.8 10 Sudoeste 22 Oeste 0 -- -- 36
2019-10-09 15:00:00 30.6 4 Sudoeste 18 Oeste 0 -- -- 39
2019-10-09 14:00:00 28.4 7 Oeste 19 Oeste 0 -- -- 42
2019-10-09 13:00:00 26 6 Oeste 15 Sudoeste 0 -- -- 49
2019-10-09 12:00:00 23.6 6 Oeste 17 Sudoeste 0 -- -- 55
2019-10-09 11:00:00 20.8 7 Oeste 15 Sudoeste 0 -- -- 65
2019-10-09 10:00:00 17.4 7 Sudoeste 15 Sudoeste 0 -- -- 76
2019-10-09 09:00:00 15.3 6 Oeste 15 Oeste 0 -- -- 90
2019-10-09 08:00:00 15.5 7 Oeste 14 Oeste 0 -- -- 91
2019-10-09 07:00:00 15.8 5 Oeste 13 Sudoeste 0 -- -- 91
2019-10-09 06:00:00 16.5 8 Oeste 14 Sudoeste 0 -- -- 91
2019-10-09 05:00:00 17.4 7 Sudoeste 14 Sudoeste 0 -- -- 88
2019-10-09 04:00:00 18.4 7 Oeste 15 Oeste 0 -- -- 86
2019-10-09 03:00:00 19.5 7 Oeste 17 Sudoeste 0 -- -- 81
2019-10-09 02:00:00 20.7 8 Sudoeste 18 Sudoeste 0 -- -- 74
2019-10-09 01:00:00 22.2 9 Sudoeste 18 Sudoeste 0 -- -- 66
2019-10-09 00:00:00 23.2 9 Sudoeste 17 Sudoeste 0 -- -- 56
2019-10-08 23:00:00 22.2 3 Sudoeste 11 Sudoeste 0 -- -- 46
2019-10-08 22:00:00 22.8 5 Sudoeste 11 Sudoeste 0 -- -- 40
2019-10-08 21:00:00 24.7 3 Sudoeste 8 Sudoeste 0 -- -- 36
2019-10-08 20:00:00 27 4 Sudoeste 12 Oeste 0 -- -- 31
2019-10-08 19:00:00 32.4 8 Sudoeste 16 Oeste 0 -- -- 26
2019-10-08 18:00:00 33.5 7 Oeste 14 Oeste 0 -- -- 25
2019-10-08 17:00:00 34.8 3 Noroeste 15 Oeste 0 -- -- 24
2019-10-08 16:00:00 35.2 3 Sudoeste 13 Oeste 0 -- -- 25
2019-10-08 15:00:00 34.7 3 Noroeste 10 Oeste 0 -- -- 26
2019-10-08 14:00:00 32.5 0 Calma 7 Noroeste 0 -- -- 27
2019-10-08 13:00:00 31.3 0 Calma 8 Nordeste 0 -- -- 31
2019-10-08 12:00:00 27.4 3 Este 12 Este 0 -- -- 36
2019-10-08 11:00:00 23.1 8 Este 13 Este 0 -- -- 42
2019-10-08 10:00:00 20 5 Este 11 Este 0 -- -- 49
2019-10-08 09:00:00 15.8 5 Este 6 Este 0 -- -- 58
2019-10-08 08:00:00 13.1 0 Calma 5 Este 0 -- -- 59
2019-10-08 07:00:00 14.9 2 Este 10 Este 0 -- -- 55
2019-10-08 06:00:00 16 6 Este 9 Este 0 -- -- 52
2019-10-08 05:00:00 14.5 3 Este 6 Este 0 -- -- 57
2019-10-08 04:00:00 14.8 3 Este 5 Este 0 -- -- 57
2019-10-08 03:00:00 15.2 2 Este 5 Este 0 -- -- 56
2019-10-08 02:00:00 15.4 0 Calma 5 Sudoeste 0 -- -- 55
2019-10-08 01:00:00 16.7 0 Calma 10 Sudoeste 0 -- -- 51
2019-10-08 00:00:00 19.8 2 Nordeste 11 Oeste 0 -- -- 46
2019-10-07 23:00:00 19.6 0 Calma 2 Sur 0 -- -- 43
2019-10-07 22:00:00 21.3 0 Calma 2 Sur 0 -- -- 39
2019-10-07 21:00:00 23.7 0 Calma 4 Sudeste 0 -- -- 34
2019-10-07 20:00:00 27.1 3 Sur 6 Sur 0 -- -- 28
2019-10-07 19:00:00 32 3 Sudeste 9 Sudoeste 0 -- -- 25
2019-10-07 18:00:00 32.5 3 Noroeste 8 Norte 0 -- -- 25
2019-10-07 17:00:00 32.9 3 Noroeste 9 Oeste 0 -- -- 24
2019-10-07 16:00:00 33.2 0 Calma 10 Nordeste 0 -- -- 25
2019-10-07 15:00:00 30.6 4 Nordeste 13 Este 0 -- -- 27
2019-10-07 14:00:00 30.2 0 Calma 12 Sudeste 0 -- -- 31
2019-10-07 13:00:00 28.1 2 Nordeste 9 Este 0 -- -- 33
2019-10-07 12:00:00 25.1 0 Calma 6 Nordeste 0 -- -- 39
2019-10-07 11:00:00 21.6 0 Calma 7 Oeste 0 -- -- 54
2019-10-07 10:00:00 18 0 Calma 5 Oeste 0 -- -- 65
2019-10-07 09:00:00 13.3 0 Calma 3 Este 0 -- -- 87
2019-10-07 08:00:00 11.4 0 Calma 4 Oeste 0 -- -- 90
2019-10-07 07:00:00 12.8 0 Calma 9 Sudoeste 0 -- -- 88
2019-10-07 06:00:00 13 3 Sudoeste 8 Oeste 0 -- -- 80
2019-10-07 05:00:00 14.5 5 Oeste 9 Oeste 0 -- -- 75
2019-10-07 04:00:00 15.3 5 Oeste 11 Oeste 0 -- -- 67
2019-10-07 03:00:00 15.7 5 Oeste 10 Oeste 0 -- -- 62
2019-10-07 02:00:00 17.1 6 Oeste 10 Sudoeste 0 -- -- 54
2019-10-07 01:00:00 17.1 3 Oeste 8 Oeste 0 -- -- 52
2019-10-07 00:00:00 17 5 Sudoeste 9 Sudoeste 0 -- -- 52
2019-10-06 23:00:00 18.2 3 Oeste 7 Oeste 0 -- -- 49
2019-10-06 22:00:00 19.6 4 Oeste 8 Sudoeste 0 -- -- 42
2019-10-06 21:00:00 21 5 Sudoeste 9 Sudoeste 0 -- -- 40
2019-10-06 20:00:00 25.3 5 Sudoeste 15 Sudoeste 0 -- -- 32
2019-10-06 19:00:00 28.8 6 Sudoeste 14 Oeste 0 -- -- 28
2019-10-06 18:00:00 29.6 4 Oeste 16 Oeste 0 -- -- 27
2019-10-06 17:00:00 31 4 Oeste 16 Oeste 0 -- -- 26
2019-10-06 16:00:00 30.4 4 Oeste 15 Oeste 0 -- -- 28
2019-10-06 15:00:00 28.8 5 Oeste 10 Oeste 0 -- -- 33
2019-10-06 14:00:00 26.7 4 Oeste 12 Sudoeste 0 -- -- 37
2019-10-06 13:00:00 24.2 0 Calma 10 Noroeste 0 -- -- 42
2019-10-06 12:00:00 22.5 2 Noroeste 8 Sudoeste 0 -- -- 48
2019-10-06 11:00:00 18.7 0 Calma 8 Sudoeste 0 -- -- 59
2019-10-06 10:00:00 14.3 3 Oeste 5 Oeste 0 -- -- 72
2019-10-06 09:00:00 10.7 0 Calma 5 Noroeste 0 -- -- 91
2019-10-06 08:00:00 10 0 Calma 6 Oeste 0 -- -- 92
2019-10-06 07:00:00 10.2 3 Oeste 12 Sudoeste 0 -- -- 89
2019-10-06 06:00:00 12.6 6 Sudoeste 13 Sudoeste 0 -- -- 85
2019-10-06 05:00:00 12.6 5 Oeste 12 Oeste 0 -- -- 82
2019-10-06 04:00:00 12.9 5 Sudoeste 11 Sudoeste 0 -- -- 76
2019-10-06 03:00:00 14.9 6 Oeste 16 Sudoeste 0 -- -- 71
2019-10-06 02:00:00 15.9 8 Sudoeste 15 Sudoeste 0 -- -- 65
2019-10-06 01:00:00 15 6 Sudoeste 10 Sudoeste 0 -- -- 67
2019-10-06 00:00:00 16 5 Sudoeste 9 Sudoeste 0 -- -- 61
2019-10-05 23:00:00 17.3 5 Sudoeste 8 Sudoeste 0 -- -- 60
2019-10-05 22:00:00 17.3 3 Sudoeste 7 Sudoeste 0 -- -- 56
2019-10-05 21:00:00 18.9 5 Sur 7 Sudoeste 0 -- -- 49
2019-10-05 20:00:00 21.7 4 Sudoeste 13 Oeste 0 -- -- 42
2019-10-05 19:00:00 25.2 8 Sudoeste 17 Oeste 0 -- -- 37
2019-10-05 18:00:00 25.5 9 Oeste 19 Oeste 0 -- -- 36
2019-10-05 17:00:00 27.3 6 Oeste 20 Oeste 0 -- -- 36
2019-10-05 16:00:00 26.5 9 Oeste 20 Oeste 0 -- -- 35
2019-10-05 15:00:00 24.9 9 Oeste 19 Oeste 0 -- -- 39
2019-10-05 14:00:00 22.4 7 Oeste 18 Oeste 0 -- -- 48
2019-10-05 13:00:00 20.9 6 Sudoeste 13 Oeste 0 -- -- 53
2019-10-05 12:00:00 19.2 4 Oeste 12 Sudoeste 0 -- -- 61
2019-10-05 11:00:00 14.6 3 Oeste 10 Sudoeste 0 -- -- 78
2019-10-05 10:00:00 14.4 3 Oeste 6 Oeste 0 -- -- 75
2019-10-05 09:00:00 12.3 2 Oeste 8 Oeste 0 -- -- 91
2019-10-05 08:00:00 11.6 5 Sudoeste 10 Sudoeste 0 -- -- 92
2019-10-05 07:00:00 11.5 4 Oeste 10 Oeste 0 -- -- 92
2019-10-05 06:00:00 12.3 0 Calma 7 Oeste 0 -- -- 91
2019-10-05 05:00:00 13.4 5 Oeste 17 Sudoeste 0 -- -- 84
2019-10-05 04:00:00 14.9 9 Sudoeste 18 Sudoeste 0 -- -- 77
2019-10-05 03:00:00 15.3 9 Sudoeste 16 Sudoeste 0 -- -- 76
2019-10-05 02:00:00 16.3 8 Sudoeste 17 Oeste 0 -- -- 74
2019-10-05 01:00:00 18.1 10 Sudoeste 18 Oeste 0 -- -- 69
2019-10-05 00:00:00 19 7 Sudoeste 14 Sudoeste 0 -- -- 66
2019-10-04 23:00:00 19 5 Sudoeste 12 Sudoeste 0 -- -- 64
2019-10-04 22:00:00 19.3 3 Oeste 10 Noroeste 0 -- -- 55
2019-10-04 21:00:00 19.9 3 Sur 5 Sur 0 -- -- 50
2019-10-04 20:00:00 22.6 3 Sudoeste 12 Sudoeste 0 -- -- 42
2019-10-04 19:00:00 26.8 6 Sudoeste 15 Oeste 0 -- -- 38
2019-10-04 18:00:00 27.1 6 Oeste 19 Oeste 0 -- -- 38
2019-10-04 17:00:00 27.9 8 Oeste 16 Oeste 0 -- -- 38
2019-10-04 16:00:00 27.8 6 Sudoeste 18 Oeste 0 -- -- 40
2019-10-04 15:00:00 25.8 6 Oeste 14 Sudoeste 0 -- -- 43
2019-10-04 14:00:00 24.1 3 Sudoeste 13 Oeste 0 -- -- 51
2019-10-04 13:00:00 20 6 Oeste 14 Oeste 0 -- -- 67
2019-10-04 12:00:00 16.9 6 Oeste 15 Sudoeste 0 -- -- 83
2019-10-04 11:00:00 16.2 6 Oeste 13 Oeste 0 -- -- 85
2019-10-04 10:00:00 15.3 5 Oeste 13 Oeste 0 -- -- 85
2019-10-04 09:00:00 14 0 Calma 5 Oeste 0 -- -- 93
2019-10-04 08:00:00 12.8 2 Oeste 9 Oeste 0 -- -- 93
2019-10-04 07:00:00 13.2 4 Oeste 9 Sudoeste 0 -- -- 92
2019-10-04 06:00:00 15.6 6 Sudoeste 14 Sudoeste 0 -- -- 88
2019-10-04 05:00:00 15 3 Oeste 15 Sudoeste 0 -- -- 87
2019-10-04 04:00:00 16.1 6 Sudoeste 15 Oeste 0 -- -- 86
2019-10-04 03:00:00 16.5 8 Sudoeste 16 Sudoeste 0 -- -- 83
2019-10-04 02:00:00 17.3 7 Sudoeste 19 Oeste 0 -- -- 77
2019-10-04 01:00:00 19.2 8 Sudoeste 16 Sudoeste 0 -- -- 72
2019-10-04 00:00:00 19.5 6 Sudoeste 13 Sudoeste 0 -- -- 63
2019-10-03 23:00:00 20 5 Sudoeste 14 Sudoeste 0 -- -- 42
2019-10-03 22:00:00 20.4 5 Sudoeste 13 Sudoeste 0 -- -- 34
2019-10-03 21:00:00 21.3 5 Sudoeste 13 Oeste 0 -- -- 34
2019-10-03 20:00:00 25.3 7 Sudoeste 23 Sudoeste 0 -- -- 32
2019-10-03 19:00:00 27.9 13 Sudoeste 27 Sudoeste 0 -- -- 31
2019-10-03 18:00:00 28.9 13 Sudoeste 29 Sudoeste 0 -- -- 31
2019-10-03 17:00:00 29.1 13 Oeste 27 Oeste 0 -- -- 30
2019-10-03 16:00:00 28.8 12 Oeste 24 Oeste 0 -- -- 31
2019-10-03 15:00:00 29 6 Oeste 21 Oeste 0 -- -- 31
2019-10-03 14:00:00 26.5 7 Oeste 17 Sudoeste 0 -- -- 37
2019-10-03 13:00:00 24.5 2 Oeste 13 Oeste 0 -- -- 41
2019-10-03 12:00:00 21.9 5 Oeste 13 Sudoeste 0 -- -- 49
2019-10-03 11:00:00 18.6 6 Oeste 13 Oeste 0 -- -- 60
2019-10-03 10:00:00 15.1 7 Oeste 14 Oeste 0 -- -- 72
2019-10-03 09:00:00 12.5 7 Oeste 14 Oeste 0 -- -- 84
2019-10-03 08:00:00 11.5 4 Oeste 9 Oeste 0 -- -- 85
2019-10-03 07:00:00 12.5 6 Oeste 15 Oeste 0 -- -- 83
2019-10-03 06:00:00 11.7 3 Oeste 9 Oeste 0 -- -- 83
2019-10-03 05:00:00 12.8 5 Oeste 16 Sudoeste 0 -- -- 76
2019-10-03 04:00:00 14 5 Oeste 11 Oeste 0 -- -- 74
2019-10-03 03:00:00 15.4 6 Oeste 18 Sur 0 -- -- 65
2019-10-03 02:00:00 17.1 11 Sudoeste 20 Sudoeste 0 -- -- 57
2019-10-03 01:00:00 17.1 6 Sudoeste 12 Sudoeste 0 -- -- 54
2019-10-03 00:00:00 18.1 6 Sudoeste 13 Sudoeste 0 -- -- 48
2019-10-02 23:00:00 18 5 Sur 13 Sudoeste 0 -- -- 43
2019-10-02 22:00:00 17.9 5 Sudoeste 10 Sudoeste 0 -- -- 41
2019-10-02 21:00:00 19.5 4 Sudoeste 13 Oeste 0 -- -- 36
2019-10-02 20:00:00 24.1 7 Sudoeste 22 Oeste 0 -- -- 28
2019-10-02 19:00:00 27 12 Sudoeste 23 Oeste 0 -- -- 27
2019-10-02 18:00:00 27.5 13 Sudoeste 25 Sudoeste 0 -- -- 27
2019-10-02 17:00:00 28.5 12 Sudoeste 25 Sudoeste 0 -- -- 26
2019-10-02 16:00:00 27.2 12 Oeste 24 Oeste 0 -- -- 29
2019-10-02 15:00:00 26.4 13 Oeste 24 Sudoeste 0 -- -- 32
2019-10-02 14:00:00 25.3 10 Oeste 23 Oeste 0 -- -- 33
2019-10-02 13:00:00 23.2 10 Oeste 22 Oeste 0 -- -- 39
2019-10-02 12:00:00 20 9 Sudoeste 20 Sudoeste 0 -- -- 55
2019-10-02 11:00:00 16.3 8 Sudoeste 19 Oeste 0 -- -- 71
2019-10-02 10:00:00 13.1 8 Oeste 17 Sudoeste 0 -- -- 89
2019-10-02 09:00:00 12.9 8 Sudoeste 14 Sudoeste 0 -- -- 93
2019-10-02 08:00:00 12.2 9 Sudoeste 18 Sudoeste 0 -- -- 95
2019-10-02 07:00:00 12.7 6 Sudoeste 16 Sudoeste 0 -- -- 93
2019-10-02 06:00:00 13.1 5 Sudoeste 14 Sudoeste 0 -- -- 92
2019-10-02 05:00:00 13.4 7 Sudoeste 15 Sudoeste 0 -- -- 91
2019-10-02 04:00:00 14.2 6 Sudoeste 15 Sudoeste 0 -- -- 86
2019-10-02 03:00:00 14.4 7 Sudoeste 21 Sudoeste 0 -- -- 83
2019-10-02 02:00:00 16.1 9 Sudoeste 18 Oeste 0 -- -- 76
2019-10-02 01:00:00 17 10 Oeste 17 Sudoeste 0 -- -- 71
2019-10-02 00:00:00 18.5 6 Sudoeste 15 Oeste 0 -- -- 60
2019-10-01 23:00:00 20.1 7 Oeste 16 Sudoeste 0 -- -- 52
2019-10-01 22:00:00 20.1 6 Sudoeste 16 Sudoeste 0 -- -- 49
2019-10-01 21:00:00 22.1 6 Sudoeste 18 Oeste 0 -- -- 42
2019-10-01 20:00:00 25.7 11 Noroeste 23 Oeste 0 -- -- 37
2019-10-01 19:00:00 27.1 13 Oeste 26 Noroeste 0 -- -- 37
2019-10-01 18:00:00 27.7 14 Oeste 32 Oeste 0 -- -- 36
2019-10-01 17:00:00 28.6 13 Oeste 32 Noroeste 0 -- -- 36
2019-10-01 16:00:00 27.2 12 Noroeste 33 Oeste 0 -- -- 37
2019-10-01 15:00:00 28.4 16 Oeste 31 Oeste 0 -- -- 36
2019-10-01 14:00:00 26.3 13 Oeste 27 Oeste 0 -- -- 39
2019-10-01 13:00:00 24 7 Oeste 19 Oeste 0 -- -- 49
2019-10-01 12:00:00 22.7 9 Oeste 27 Sudoeste 0 -- -- 57
2019-10-01 11:00:00 19.6 10 Oeste 24 Sudoeste 0 -- -- 73
2019-10-01 10:00:00 16.7 12 Oeste 21 Oeste 0 -- -- 83
2019-10-01 09:00:00 16.7 11 Oeste 22 Sudoeste 0 -- -- 85
2019-10-01 08:00:00 16.6 12 Oeste 22 Oeste 0 -- -- 88
2019-10-01 07:00:00 15.5 7 Oeste 18 Sudoeste 0 -- -- 90
2019-10-01 06:00:00 16 6 Sudoeste 14 Sudoeste 0 -- -- 87
2019-10-01 05:00:00 16.6 3 Oeste 9 Oeste 0 -- -- 73
2019-10-01 04:00:00 17.4 2 Oeste 10 Oeste 0 -- -- 65
2019-10-01 03:00:00 19.3 6 Oeste 15 Sudoeste 0 -- -- 57
2019-10-01 02:00:00 20.3 8 Sudoeste 19 Sudoeste 0 -- -- 50
2019-10-01 01:00:00 21.7 10 Sudoeste 18 Sudoeste 0 -- -- 45
2019-10-01 00:00:00 22.7 10 Sudoeste 19 Sudoeste 0 -- -- 43
2019-09-30 23:00:00 21.6 6 Sudoeste 9 Sudoeste 0 -- -- 40
2019-09-30 22:00:00 20.5 2 Sudoeste 6 Sudoeste 0 -- -- 37
2019-09-30 21:00:00 22.6 3 Sudoeste 6 Oeste 0 -- -- 29
2019-09-30 20:00:00 26.9 4 Oeste 19 Noroeste 0 -- -- 23
2019-09-30 19:00:00 31.7 10 Oeste 22 Oeste 0 -- -- 21
2019-09-30 18:00:00 32.4 13 Oeste 24 Oeste 0 -- -- 22
2019-09-30 17:00:00 33.9 6 Sudoeste 20 Oeste 0 -- -- 25
2019-09-30 16:00:00 33.3 3 Norte 12 Norte 0 -- -- 25
2019-09-30 15:00:00 33.4 3 Norte 17 Oeste 0 -- -- 26
2019-09-30 14:00:00 31.3 2 Norte 10 Norte 0 -- -- 31
2019-09-30 13:00:00 27.6 4 Nordeste 8 Este 0 -- -- 39
2019-09-30 12:00:00 24.9 2 Norte 8 Este 0 -- -- 46
2019-09-30 11:00:00 22 2 Nordeste 4 Nordeste 0 -- -- 52
2019-09-30 10:00:00 19.2 2 Nordeste 5 Este 0 -- -- 63
2019-09-30 09:00:00 13.3 0 Calma 3 Sur 0 -- -- 88
2019-09-30 08:00:00 10.3 0 Calma 3 Sudeste 0 -- -- 91
2019-09-30 07:00:00 12.1 0 Calma 6 Sudoeste 0 -- -- 89
2019-09-30 06:00:00 12.6 2 Oeste 9 Oeste 0 -- -- 80
2019-09-30 05:00:00 13.4 0 Calma 8 Sudoeste 0 -- -- 76
2019-09-30 04:00:00 13.2 5 Oeste 10 Oeste 0 -- -- 63
2019-09-30 03:00:00 14.2 4 Oeste 9 Noroeste 0 -- -- 55
2019-09-30 02:00:00 14.6 0 Calma 6 Oeste 0 -- -- 55
2019-09-30 01:00:00 15.1 4 Sudoeste 6 Oeste 0 -- -- 46
2019-09-30 00:00:00 16.9 5 Sudoeste 7 Sudoeste 0 -- -- 45
2019-09-29 23:00:00 18.5 4 Sudoeste 7 Sudoeste 0 -- -- 46
2019-09-29 22:00:00 20.5 3 Sudoeste 6 Sudoeste 0 -- -- 40
2019-09-29 21:00:00 21.6 3 Oeste 6 Oeste 0 -- -- 35
2019-09-29 20:00:00 26 4 Sudoeste 16 Oeste 0 -- -- 28
2019-09-29 19:00:00 30.7 8 Oeste 18 Sudoeste 0 -- -- 25
2019-09-29 18:00:00 31.4 8 Oeste 20 Oeste 0 -- -- 25
2019-09-29 17:00:00 33.3 6 Oeste 19 Sudoeste 0 -- -- 25
2019-09-29 16:00:00 33.4 4 Oeste 15 Oeste 0 -- -- 25
2019-09-29 15:00:00 31.6 5 Noroeste 17 Noroeste 0 -- -- 28
2019-09-29 14:00:00 30.1 3 Sudoeste 12 Oeste 0 -- -- 35
2019-09-29 13:00:00 27.4 3 Oeste 12 Oeste 0 -- -- 42
2019-09-29 12:00:00 24.1 3 Oeste 9 Sudoeste 0 -- -- 49
2019-09-29 11:00:00 21.8 0 Calma 7 Oeste 0 -- -- 56
2019-09-29 10:00:00 19.4 2 Sudoeste 5 Sudoeste 0 -- -- 65
2019-09-29 09:00:00 14.5 2 Sur 4 Sur 0 -- -- 81
2019-09-29 08:00:00 11 2 Oeste 5 Oeste 0 -- -- 84
2019-09-29 07:00:00 11.5 0 Calma 8 Oeste 0 -- -- 82
2019-09-29 06:00:00 13.1 2 Oeste 6 Sudoeste 0 -- -- 76
2019-09-29 05:00:00 13.9 2 Oeste 12 Sudoeste 0 -- -- 70
2019-09-29 04:00:00 14 3 Oeste 8 Oeste 0 -- -- 68
2019-09-29 03:00:00 16.2 6 Oeste 10 Oeste 0 -- -- 60
2019-09-29 02:00:00 16.5 4 Oeste 8 Noroeste 0 -- -- 57
2019-09-29 01:00:00 17.2 3 Oeste 6 Sudoeste 0 -- -- 54
2019-09-29 00:00:00 19 5 Sudoeste 10 Sudoeste 0 -- -- 46
2019-09-28 23:00:00 18.6 0 Calma 5 Sur 0 -- -- 42
2019-09-28 22:00:00 20.6 0 Calma 9 Sudoeste 0 -- -- 39
2019-09-28 21:00:00 23.1 4 Sudoeste 9 Sudoeste 0 -- -- 34
2019-09-28 20:00:00 28.1 5 Oeste 12 Oeste 0 -- -- 26
2019-09-28 19:00:00 32 5 Noroeste 14 Noroeste 0 -- -- 21
2019-09-28 18:00:00 32.6 3 Noroeste 13 Noroeste 0 -- -- 21
2019-09-28 17:00:00 33.6 5 Noroeste 14 Norte 0 -- -- 20
2019-09-28 16:00:00 32.9 5 Nordeste 14 Nordeste 0 -- -- 21
2019-09-28 15:00:00 34.2 3 Norte 13 Este 0 -- -- 22
2019-09-28 14:00:00 30.4 5 Este 13 Este 0 -- -- 27
2019-09-28 13:00:00 28.5 3 Nordeste 10 Este 0 -- -- 32
2019-09-28 12:00:00 25.5 3 Nordeste 10 Este 0 -- -- 39
2019-09-28 11:00:00 22.4 3 Nordeste 9 Este 0 -- -- 49
2019-09-28 10:00:00 18.6 3 Nordeste 7 Este 0 -- -- 56
2019-09-28 09:00:00 14 2 Este 5 Este 0 -- -- 74
2019-09-28 08:00:00 11.4 3 Este 5 Nordeste 0 -- -- 89
2019-09-28 07:00:00 10.7 0 Calma -- -- 0 -- -- 92
2019-09-28 06:00:00 11.2 0 Calma -- -- 0 -- -- 91
2019-09-28 05:00:00 12.6 0 Calma 5 Oeste 0 -- -- 88
2019-09-28 04:00:00 14.3 3 Oeste 9 Oeste 0 -- -- 83
2019-09-28 03:00:00 14.9 6 Oeste 13 Oeste 0 -- -- 75
2019-09-28 02:00:00 16.4 6 Oeste 14 Sudoeste 0 -- -- 61
2019-09-28 01:00:00 18.1 7 Sudoeste 14 Sudoeste 0 -- -- 46
2019-09-28 00:00:00 19.8 6 Sudoeste 14 Sudoeste 0 -- -- 39
2019-09-27 23:00:00 20 5 Sudoeste 12 Sudoeste 0 -- -- 39
2019-09-27 22:00:00 19.7 4 Sur 12 Sudoeste 0 -- -- 40
2019-09-27 21:00:00 22.6 4 Sudoeste 12 Sudoeste 0 -- -- 35
2019-09-27 20:00:00 27.6 6 Sudoeste 18 Sudoeste 0 -- -- 28
2019-09-27 19:00:00 30.3 7 Sudoeste 19 Sudoeste 0 -- -- 27
2019-09-27 18:00:00 30.9 9 Sudoeste 20 Oeste 0 -- -- 26
2019-09-27 17:00:00 32.6 8 Sudoeste 17 Sudoeste 0 -- -- 26
2019-09-27 16:00:00 33 4 Oeste 15 Oeste 0 -- -- 27
2019-09-27 15:00:00 31.1 9 Oeste 18 Oeste 0 -- -- 30
2019-09-27 14:00:00 30 4 Oeste 11 Oeste 0 -- -- 33
2019-09-27 13:00:00 26.6 0 Calma 10 Sudoeste 0 -- -- 39
2019-09-27 12:00:00 23.8 3 Oeste 12 Noroeste 0 -- -- 48
2019-09-27 11:00:00 20.7 5 Oeste 13 Oeste 0 -- -- 59
2019-09-27 10:00:00 18.2 3 Oeste 7 Oeste 0 -- -- 67
2019-09-27 09:00:00 14.7 0 Calma 6 Oeste 0 -- -- 83
2019-09-27 08:00:00 12.9 0 Calma 10 Sudoeste 0 -- -- 92
2019-09-27 07:00:00 13.9 6 Sudoeste 11 Sudoeste 0 -- -- 89
2019-09-27 06:00:00 14.5 5 Sudoeste 10 Sudoeste 0 -- -- 85
2019-09-27 05:00:00 14.4 5 Sudoeste 9 Oeste 0 -- -- 77
2019-09-27 04:00:00 16.3 5 Oeste 13 Sudoeste 0 -- -- 66
2019-09-27 03:00:00 17.9 8 Sudoeste 13 Sudoeste 0 -- -- 60
2019-09-27 02:00:00 18.8 6 Sudoeste 17 Sudoeste 0 -- -- 55
2019-09-27 01:00:00 19.1 6 Sudoeste 12 Sudoeste 0 -- -- 54
2019-09-27 00:00:00 18.7 6 Oeste 9 Sudoeste 0 -- -- 54
2019-09-26 23:00:00 18.4 2 Oeste 3 Oeste 0 -- -- 51
2019-09-26 22:00:00 20.5 3 Sudoeste 6 Sudoeste 0 -- -- 43
2019-09-26 21:00:00 21.5 4 Sudoeste 10 Sudoeste 0 -- -- 39
2019-09-26 20:00:00 26.6 5 Sudoeste 13 Oeste 0 -- -- 32
2019-09-26 19:00:00 29 5 Oeste 13 Noroeste 0 -- -- 30
2019-09-26 18:00:00 29.5 4 Oeste 15 Noroeste 0 -- -- 29
2019-09-26 17:00:00 30.8 5 Sudoeste 18 Sudoeste 0 -- -- 28
2019-09-26 16:00:00 31.6 3 Sudoeste 13 Sudoeste 0 -- -- 28
2019-09-26 15:00:00 30.1 3 Oeste 10 Oeste 0 -- -- 31
2019-09-26 14:00:00 28 4 Oeste 10 Oeste 0 -- -- 35
2019-09-26 13:00:00 26 5 Oeste 11 Oeste 0 -- -- 40
2019-09-26 12:00:00 23.3 3 Oeste 8 Oeste 0 -- -- 48
2019-09-26 11:00:00 21.1 2 Oeste 8 Oeste 0 -- -- 54
2019-09-26 10:00:00 17.6 5 Oeste 9 Oeste 0 -- -- 67
2019-09-26 09:00:00 14.9 0 Calma 5 Oeste 0 -- -- 78
2019-09-26 08:00:00 12.5 2 Oeste 5 Noroeste 0 -- -- 90
2019-09-26 07:00:00 13.1 4 Sudoeste 8 Sudoeste 0 -- -- 88
2019-09-26 06:00:00 14 5 Oeste 10 Oeste 0 -- -- 83
2019-09-26 05:00:00 13.6 5 Sudoeste 11 Oeste 0 -- -- 83
2019-09-26 04:00:00 15 5 Oeste 12 Sudoeste 0 -- -- 75
2019-09-26 03:00:00 16.3 6 Sudoeste 14 Sudoeste 0 -- -- 69
2019-09-26 02:00:00 17.1 6 Sudoeste 14 Oeste 0 -- -- 64
2019-09-26 01:00:00 17.6 6 Sudoeste 14 Sudoeste 0 -- -- 59
2019-09-26 00:00:00 19.2 6 Sudoeste 13 Sudoeste 0 -- -- 52
2019-09-25 23:00:00 20 5 Sudoeste 13 Sudoeste 0 -- -- 45
2019-09-25 22:00:00 18.5 2 Oeste 7 Oeste 0 -- -- 42
2019-09-25 21:00:00 20.8 3 Oeste 11 Noroeste 0 -- -- 37
2019-09-25 20:00:00 25.6 5 Noroeste 18 Noroeste 0 -- -- 30
2019-09-25 19:00:00 27.2 8 Noroeste 20 Noroeste 0 -- -- 28
2019-09-25 18:00:00 27.5 7 Noroeste 24 Oeste 0 -- -- 27
2019-09-25 17:00:00 28.5 10 Noroeste 23 Norte 0 -- -- 27
2019-09-25 16:00:00 28.3 7 Noroeste 22 Noroeste 0 -- -- 27
2019-09-25 15:00:00 27.7 8 Noroeste 24 Oeste 0 -- -- 28
2019-09-25 14:00:00 26.8 8 Noroeste 21 Noroeste 0 -- -- 31
2019-09-25 13:00:00 24.9 9 Noroeste 20 Sudoeste 0 -- -- 35
2019-09-25 12:00:00 22.6 9 Oeste 20 Oeste 0 -- -- 42
2019-09-25 11:00:00 19.7 7 Oeste 18 Oeste 0 -- -- 60
2019-09-25 10:00:00 16.2 10 Sudoeste 19 Sudoeste 0 -- -- 76
2019-09-25 09:00:00 14 6 Oeste 14 Sudoeste 0 -- -- 92
2019-09-25 08:00:00 13.8 7 Sudoeste 15 Sudoeste 0 -- -- 94
2019-09-25 07:00:00 13.9 5 Sudoeste 13 Sudoeste 0 -- -- 93
2019-09-25 06:00:00 14.1 6 Sudoeste 13 Sudoeste 0 -- -- 93
2019-09-25 05:00:00 16.2 6 Sudoeste 13 Sudoeste 0 -- -- 94
2019-09-25 04:00:00 14.4 4 Sudoeste 11 Sudoeste 0 -- -- 93
2019-09-25 03:00:00 16 3 Oeste 13 Sudoeste 0 -- -- 93
2019-09-25 02:00:00 17.5 5 Sudoeste 12 Oeste 0 -- -- 90
2019-09-25 01:00:00 19.3 5 Oeste 21 Oeste 0 -- -- 77
2019-09-25 00:00:00 21.8 9 Oeste 22 Noroeste 0 -- -- 68
2019-09-24 23:00:00 22.4 9 Oeste 19 Oeste 0 -- -- 67
2019-09-24 22:00:00 22.6 9 Oeste 25 Noroeste 0 -- -- 72
2019-09-24 21:00:00 23.6 11 Oeste 24 Oeste 0 -- -- 63
2019-09-24 20:00:00 25.4 12 Oeste 30 Oeste 0 -- -- 55
2019-09-24 19:00:00 27 15 Oeste 28 Oeste 0 -- -- 50
2019-09-24 18:00:00 27.4 17 Oeste 32 Oeste 0 -- -- 48
2019-09-24 17:00:00 28.9 13 Oeste 28 Oeste 0 -- -- 45
2019-09-24 16:00:00 28.3 12 Oeste 27 Oeste 0 -- -- 45
2019-09-24 15:00:00 27.4 9 Oeste 24 Oeste 0 -- -- 43
2019-09-24 14:00:00 26.9 10 Oeste 21 Oeste 0 -- -- 42
2019-09-24 13:00:00 24.5 10 Oeste 20 Oeste 0 -- -- 45
2019-09-24 12:00:00 22.7 7 Oeste 17 Oeste 0 -- -- 52
2019-09-24 11:00:00 20.4 6 Sudoeste 12 Sudoeste 0 -- -- 59
2019-09-24 10:00:00 18.8 2 Oeste 6 Noroeste 0 -- -- 62
2019-09-24 09:00:00 14.7 0 Calma 4 Sudeste 0 -- -- 84
2019-09-24 08:00:00 9.9 0 Calma 4 Noroeste 0 -- -- 91
2019-09-24 07:00:00 11.5 2 Oeste 7 Oeste 0 -- -- 89
2019-09-24 06:00:00 13.1 4 Oeste 9 Oeste 0 -- -- 84
2019-09-24 05:00:00 13.8 6 Oeste 9 Sudoeste 0 -- -- 80
2019-09-24 04:00:00 13 3 Oeste 8 Oeste 0 -- -- 77
2019-09-24 03:00:00 13.6 5 Oeste 8 Oeste 0 -- -- 76
2019-09-24 02:00:00 13.3 2 Noroeste 4 Oeste 0 -- -- 76
2019-09-24 01:00:00 14.2 2 Oeste 4 Noroeste 0 -- -- 72
2019-09-24 00:00:00 14.6 0 Calma -- -- 0 -- -- 64
2019-09-23 23:00:00 15.7 0 Calma 3 Sudeste 0 -- -- 54
2019-09-23 22:00:00 18.1 3 Sur 4 Sur 0 -- -- 48
2019-09-23 21:00:00 19.1 3 Sur 9 Oeste 0 -- -- 42
2019-09-23 20:00:00 23.7 5 Sudoeste 12 Oeste 0 -- -- 33
2019-09-23 19:00:00 25.8 6 Sudoeste 13 Oeste 0 -- -- 30
2019-09-23 18:00:00 26.3 4 Oeste 18 Oeste 0 -- -- 29
2019-09-23 17:00:00 27.4 7 Sudoeste 15 Oeste 0 -- -- 28
2019-09-23 16:00:00 26.4 5 Oeste 15 Sudoeste 0 -- -- 32
2019-09-23 15:00:00 26.2 5 Oeste 17 Oeste 0 -- -- 35
2019-09-23 14:00:00 24.7 5 Sudoeste 16 Sur 0 -- -- 38
2019-09-23 13:00:00 22.9 2 Sudoeste 13 Sudoeste 0 -- -- 45
2019-09-23 12:00:00 20.9 2 Oeste 9 Oeste 0 -- -- 53
2019-09-23 11:00:00 18.5 3 Oeste 9 Oeste 0 -- -- 62
2019-09-23 10:00:00 16.5 0 Calma 4 Sudoeste 0 -- -- 71
2019-09-23 09:00:00 12.5 0 Calma 5 Oeste 0 -- -- 92
2019-09-23 08:00:00 10.5 0 Calma 3 Oeste 0 -- -- 94
2019-09-23 07:00:00 11.7 0 Calma 9 Sudoeste 0 -- -- 92
2019-09-23 06:00:00 12.1 5 Oeste 9 Sudoeste 0 -- -- 89
2019-09-23 05:00:00 12.9 5 Sudoeste 10 Sudoeste 0 -- -- 89
2019-09-23 04:00:00 12.6 3 Oeste 8 Oeste 0 -- -- 88
2019-09-23 03:00:00 14.6 5 Sudoeste 14 Sudoeste 0 -- -- 78
2019-09-23 02:00:00 14.9 5 Sudoeste 10 Sudoeste 0 -- -- 76
2019-09-23 01:00:00 15.5 5 Sudoeste 12 Sudoeste 0 -- -- 73
2019-09-23 00:00:00 14.3 3 Sudoeste 5 Sudoeste 0 -- -- 74
2019-09-22 23:00:00 15.4 3 Sudoeste 7 Sudoeste 0 -- -- 70
2019-09-22 22:00:00 16.3 4 Sur 7 Sudoeste 0 -- -- 65
2019-09-22 21:00:00 19 4 Sudoeste 14 Oeste 0 -- -- 53
2019-09-22 20:00:00 22 6 Oeste 21 Oeste 0 -- -- 42
2019-09-22 19:00:00 23.7 9 Oeste 24 Oeste 0 -- -- 39
2019-09-22 18:00:00 24.2 10 Oeste 28 Sudoeste 0 -- -- 39
2019-09-22 17:00:00 24.5 15 Oeste 31 Oeste 0 -- -- 39
2019-09-22 16:00:00 24.2 14 Oeste 24 Oeste 0 -- -- 42
2019-09-22 15:00:00 22.3 7 Noroeste 22 Oeste 0 -- -- 49
2019-09-22 14:00:00 21.1 8 Oeste 23 Oeste 0 -- -- 54
2019-09-22 13:00:00 20.4 8 Oeste 18 Sudoeste 0 -- -- 61
2019-09-22 12:00:00 19.8 9 Oeste 21 Oeste 0.1 -- -- 64
2019-09-22 11:00:00 19.3 9 Oeste 17 Sudoeste 0 -- -- 70
2019-09-22 10:00:00 17.2 8 Sudoeste 18 Sudoeste 0 -- -- 80
2019-09-22 09:00:00 15.2 7 Sudoeste 15 Sudoeste 0 -- -- 91
2019-09-22 08:00:00 13.8 5 Sudoeste 14 Sur 0 -- -- 94
2019-09-22 07:00:00 14.7 7 Sudoeste 16 Sudoeste 0 -- -- 95
2019-09-22 06:00:00 14.4 7 Sudoeste 22 Oeste 0 -- -- 92
2019-09-22 05:00:00 15.7 12 Oeste 27 Sudoeste 0 -- -- 89
2019-09-22 04:00:00 18 5 Sudoeste 15 Sudoeste 1 -- -- 96
2019-09-22 03:00:00 19.8 6 Sur 22 Sur 0 -- -- 84
2019-09-22 02:00:00 19.7 5 Sur 24 Sur 0 -- -- 88
2019-09-22 01:00:00 20.5 9 Sur 22 Sur 0 -- -- 82
2019-09-22 00:00:00 20.6 12 Sur 27 Sur 0 -- -- 82